Strona główna
METAR-TAF:

METAR-TAF

Lotnisko :

Chatham Municipal Airport

Chatham, Massachusetts, Stany Zjednoczone

Szerokość geograficzna: 41-41-15N, Długość geograficzna: 069-59-36W, wysokość: 20 m

Aktualna obserwacja pogody

Raport powstał 36 minut temu, godzina 04:52 UTC
Wiatr 3 kt od zachód
Temperatura 1°C
Wilgotność 80%
Ciśnienie 1019 hPa
Widzialność: 16.1 km
bezchmurnie

METAR: KCQX 170452Z AUTO 27003KT 10SM CLR 01/M02 A3010 RMK AO2 SLP196 T00061017 400611006

czas: 00:28 (05:28 UTC)


TAF: brakujący

Obserwacja i prognoza pogody dla ponad 4000 lotnisk (raport METAR i TAF).

Dostępne stacje oznaczono żółtymi i czerwonymi punktami na mapie.

Najedź kursorem aby zobaczyć nazwę stacji.

Kliknij aby zobaczyć obserwacje i prognozy pogody.

Aby zmienić mapę: kliknij na zielony przycisk z czarnym krzyżykiem, aby powiększyć; na zielony przycisk z myślnikiem, aby pomniejszyć; na zielone strzałki, aby przejść do map sąsiednich.


METAR-TAF: